Time;durP1;ratioP1;P1;durP2;ratioP2;P2;SDS_P1;SDS_P2;PMS_P1;PMS_P2;Temp;Humidity;BMP_temperature;BMP_pressure;BME280_temperature;BME280_humidity;BME280_pressure;Samples;Min_cycle;Max_cycle;Signal;HPM_P1;HPM_P2
2024/04/10 00:02:17;;;;;;;1.23;1.10;;;;;;;;;;5345445;26;20704;-79
2024/04/10 00:04:46;;;;;;;1.15;0.90;;;;;;;;;;5349018;26;20336;-79
2024/04/10 00:07:12;;;;;;;1.30;1.00;;;;;;;;;;5348938;26;20695;-79
2024/04/10 00:09:38;;;;;;;1.00;0.90;;;;;;;;;;5343332;26;20340;-79
2024/04/10 00:12:04;;;;;;;1.00;0.73;;;;;;;;;;5348937;26;20714;-80
2024/04/10 00:14:32;;;;;;;1.23;0.70;;;;;;;;;;5348957;26;20392;-79
2024/04/10 00:16:58;;;;;;;0.90;0.70;;;;;;;;;;5348492;26;20328;-79
2024/04/10 00:19:24;;;;;;;1.33;0.80;;;;;;;;;;5348891;26;20451;-79
2024/04/10 00:21:53;;;;;;;1.50;0.80;;;;;;;;;;5349021;26;20337;-79
2024/04/10 00:24:20;;;;;;;1.33;0.90;;;;;;;;;;5346426;26;20436;-79
2024/04/10 00:26:49;;;;;;;0.98;0.75;;;;;;;;;;5348341;26;20332;-79
2024/04/10 00:29:15;;;;;;;0.82;0.70;;;;;;;;;;5348346;26;21290;-79
2024/04/10 00:31:42;;;;;;;0.80;0.70;;;;;;;;;;5348296;26;20332;-79
2024/04/10 00:34:08;;;;;;;0.93;0.77;;;;;;;;;;5348655;26;20345;-79
2024/04/10 00:36:34;;;;;;;0.95;0.77;;;;;;;;;;5348205;26;20337;-79
2024/04/10 00:39:00;;;;;;;0.90;0.70;;;;;;;;;;5348402;26;20333;-79
2024/04/10 00:41:26;;;;;;;0.70;0.60;;;;;;;;;;5348165;26;20752;-79
2024/04/10 00:43:52;;;;;;;0.73;0.73;;;;;;;;;;5348070;26;20385;-79
2024/04/10 00:46:18;;;;;;;0.90;0.60;;;;;;;;;;5347491;26;20365;-79
2024/04/10 00:48:44;;;;;;;1.20;0.73;;;;;;;;;;5347993;26;20952;-79
2024/04/10 00:51:20;;;;;;;1.02;0.80;;;;;;;;;;5348530;26;20385;-79
2024/04/10 00:53:47;;;;;;;1.70;0.73;;;;;;;;;;5346905;26;20332;-79
2024/04/10 00:56:13;;;;;;;0.90;0.63;;;;;;;;;;5348324;26;20329;-79
2024/04/10 00:58:39;;;;;;;1.10;0.70;;;;;;;;;;5348741;26;21090;-79
2024/04/10 01:01:06;;;;;;;0.98;0.60;;;;;;;;;;5348209;26;20404;-79
2024/04/10 01:03:32;;;;;;;1.58;0.70;;;;;;;;;;5346370;26;20357;-79
2024/04/10 01:05:59;;;;;;;1.25;0.68;;;;;;;;;;5348200;26;20325;-79
2024/04/10 01:08:25;;;;;;;0.75;0.70;;;;;;;;;;5347596;26;20333;-79
2024/04/10 01:10:51;;;;;;;1.95;1.17;;;;;;;;;;5347712;26;20357;-79
2024/04/10 01:13:18;;;;;;;1.42;0.95;;;;;;;;;;5347410;26;20845;-79
2024/04/10 01:15:44;;;;;;;1.00;0.80;;;;;;;;;;5347940;26;20365;-79
2024/04/10 01:18:10;;;;;;;1.23;0.83;;;;;;;;;;5347673;26;20321;-79
2024/04/10 01:20:36;;;;;;;1.75;0.90;;;;;;;;;;5347565;26;20361;-79
2024/04/10 01:23:03;;;;;;;1.45;0.90;;;;;;;;;;5347372;26;20341;-79
2024/04/10 01:25:29;;;;;;;1.38;1.20;;;;;;;;;;5347850;26;20381;-78
2024/04/10 01:27:55;;;;;;;1.27;1.00;;;;;;;;;;5347571;26;20392;-79
2024/04/10 01:30:21;;;;;;;1.70;0.90;;;;;;;;;;5347277;26;20364;-79
2024/04/10 01:32:47;;;;;;;0.82;0.70;;;;;;;;;;5347663;26;20329;-79
2024/04/10 01:35:13;;;;;;;1.20;0.80;;;;;;;;;;5347221;26;20332;-79
2024/04/10 01:37:39;;;;;;;1.75;0.80;;;;;;;;;;5347481;26;20321;-79
2024/04/10 01:40:06;;;;;;;0.98;0.80;;;;;;;;;;5347884;26;20475;-80
2024/04/10 01:42:32;;;;;;;1.65;0.77;;;;;;;;;;5346907;26;20336;-79
2024/04/10 01:44:59;;;;;;;0.70;0.70;;;;;;;;;;5347984;26;20325;-79
2024/04/10 01:47:25;;;;;;;1.20;0.77;;;;;;;;;;5347547;26;20803;-79
2024/04/10 01:49:51;;;;;;;1.58;0.77;;;;;;;;;;5347376;26;20333;-78
2024/04/10 01:52:17;;;;;;;1.23;0.90;;;;;;;;;;5346966;26;20362;-79
2024/04/10 01:54:43;;;;;;;2.13;0.80;;;;;;;;;;5347242;26;20333;-79
2024/04/10 01:57:09;;;;;;;1.17;0.90;;;;;;;;;;5347519;26;20423;-79
2024/04/10 01:59:35;;;;;;;0.93;0.70;;;;;;;;;;5349700;26;20337;-80
2024/04/10 02:02:01;;;;;;;1.40;0.80;;;;;;;;;;5350542;26;20369;-79
2024/04/10 02:04:29;;;;;;;1.13;0.70;;;;;;;;;;5348729;26;20459;-79
2024/04/10 02:06:55;;;;;;;1.77;0.70;;;;;;;;;;5349459;26;20341;-79
2024/04/10 02:09:21;;;;;;;0.85;0.70;;;;;;;;;;5350290;26;20377;-79
2024/04/10 02:11:47;;;;;;;0.95;0.77;;;;;;;;;;5350045;26;20332;-79
2024/04/10 02:14:13;;;;;;;1.40;0.70;;;;;;;;;;5350867;26;20325;-79
2024/04/10 02:16:40;;;;;;;1.10;0.60;;;;;;;;;;5350502;26;20377;-80
2024/04/10 02:19:06;;;;;;;0.90;0.60;;;;;;;;;;5323453;26;20339;-79
2024/04/10 02:21:32;;;;;;;1.23;0.65;;;;;;;;;;5316065;27;20423;-82
2024/04/10 02:23:58;;;;;;;0.50;0.50;;;;;;;;;;5315375;27;20331;-78
2024/04/10 02:26:24;;;;;;;1.00;0.80;;;;;;;;;;5315210;26;20365;-79
2024/04/10 02:28:50;;;;;;;1.30;0.60;;;;;;;;;;5315186;27;20681;-79
2024/04/10 02:31:16;;;;;;;1.13;0.70;;;;;;;;;;5327952;26;20376;-79
2024/04/10 02:33:42;;;;;;;1.20;0.73;;;;;;;;;;5349906;26;20428;-79
2024/04/10 02:36:08;;;;;;;1.50;0.70;;;;;;;;;;5337731;26;21249;-79
2024/04/10 02:38:35;;;;;;;1.50;0.70;;;;;;;;;;5315080;26;20360;-79
2024/04/10 02:41:01;;;;;;;2.50;0.90;;;;;;;;;;5315096;26;20822;-79
2024/04/10 02:43:27;;;;;;;1.48;0.95;;;;;;;;;;5314887;26;20340;-79
2024/04/10 02:46:08;;;;;;;2.13;1.83;;;;;;;;;;5315666;26;20846;-79
2024/04/10 02:48:34;;;;;;;1.50;1.00;;;;;;;;;;5315268;26;20772;-79
2024/04/10 02:51:01;;;;;;;1.70;0.93;;;;;;;;;;5324941;26;20340;-79
2024/04/10 02:53:27;;;;;;;1.13;0.90;;;;;;;;;;5338046;26;20738;-79
2024/04/10 02:55:53;;;;;;;1.35;0.98;;;;;;;;;;5349762;26;20818;-79
2024/04/10 02:58:20;;;;;;;1.48;1.00;;;;;;;;;;5349676;26;20344;-79
2024/04/10 03:00:45;;;;;;;1.23;0.80;;;;;;;;;;5349435;26;20341;-79
2024/04/10 03:03:12;;;;;;;1.10;0.77;;;;;;;;;;5350217;26;20913;-79
2024/04/10 03:05:42;;;;;;;1.13;0.80;;;;;;;;;;5348155;26;20321;-79
2024/04/10 03:08:09;;;;;;;2.10;1.00;;;;;;;;;;5349248;26;20340;-79
2024/04/10 03:10:36;;;;;;;2.70;1.17;;;;;;;;;;5348524;26;20329;-79
2024/04/10 03:13:02;;;;;;;1.85;1.10;;;;;;;;;;5349214;26;20422;-79
2024/04/10 03:15:28;;;;;;;3.78;1.20;;;;;;;;;;5349429;26;20341;-79
2024/04/10 03:17:54;;;;;;;1.20;1.00;;;;;;;;;;5349346;26;21016;-79
2024/04/10 03:20:20;;;;;;;1.50;1.10;;;;;;;;;;5347814;26;20429;-80
2024/04/10 03:22:47;;;;;;;1.25;1.02;;;;;;;;;;5349612;26;20362;-79
2024/04/10 03:25:13;;;;;;;1.60;1.05;;;;;;;;;;5350194;26;20877;-79
2024/04/10 03:27:40;;;;;;;1.30;1.20;;;;;;;;;;5347277;26;20443;-79
2024/04/10 03:30:09;;;;;;;1.60;0.93;;;;;;;;;;5349689;26;20354;-79
2024/04/10 03:32:36;;;;;;;1.23;1.00;;;;;;;;;;5349640;26;20321;-79
2024/04/10 03:35:03;;;;;;;0.98;0.73;;;;;;;;;;5349721;26;20416;-79
2024/04/10 03:37:29;;;;;;;0.77;0.77;;;;;;;;;;5347774;26;20329;-79
2024/04/10 03:39:56;;;;;;;1.23;0.80;;;;;;;;;;5349245;26;20325;-79
2024/04/10 03:42:22;;;;;;;1.02;0.80;;;;;;;;;;5348626;26;20929;-79
2024/04/10 03:44:48;;;;;;;1.73;0.80;;;;;;;;;;5348952;26;20328;-79
2024/04/10 03:47:14;;;;;;;1.42;0.80;;;;;;;;;;5349334;26;20329;-79
2024/04/10 03:49:40;;;;;;;1.50;1.00;;;;;;;;;;5346521;26;20348;-79
2024/04/10 03:52:06;;;;;;;1.75;0.77;;;;;;;;;;5348601;26;20443;-79
2024/04/10 03:54:32;;;;;;;0.90;0.82;;;;;;;;;;5349103;26;20371;-79
2024/04/10 03:56:58;;;;;;;1.00;0.80;;;;;;;;;;5346710;26;20341;-79
2024/04/10 03:59:24;;;;;;;2.00;0.90;;;;;;;;;;5349003;26;20438;-79
2024/04/10 04:01:50;;;;;;;1.50;0.90;;;;;;;;;;5347131;26;20365;-79
2024/04/10 04:04:16;;;;;;;2.20;1.10;;;;;;;;;;5348434;26;20365;-79
2024/04/10 04:06:44;;;;;;;1.77;0.90;;;;;;;;;;5346513;26;20364;-79
2024/04/10 04:09:10;;;;;;;1.35;1.23;;;;;;;;;;5347522;26;20372;-79
2024/04/10 04:11:36;;;;;;;2.50;1.10;;;;;;;;;;5347414;26;20421;-79
2024/04/10 04:14:03;;;;;;;1.30;1.00;;;;;;;;;;5343879;26;20480;-79
2024/04/10 04:16:30;;;;;;;1.27;0.90;;;;;;;;;;5347319;26;20435;-79
2024/04/10 04:18:56;;;;;;;1.00;0.90;;;;;;;;;;5347109;26;20750;-79
2024/04/10 04:21:23;;;;;;;1.25;0.90;;;;;;;;;;5346969;26;20329;-79
2024/04/10 04:23:49;;;;;;;3.53;1.30;;;;;;;;;;5347463;26;20807;-79
2024/04/10 04:26:15;;;;;;;1.80;0.90;;;;;;;;;;5347389;26;20723;-79
2024/04/10 04:28:41;;;;;;;1.08;0.98;;;;;;;;;;5346736;26;20364;-79
2024/04/10 04:31:07;;;;;;;1.73;1.20;;;;;;;;;;5347476;26;20920;-79
2024/04/10 04:33:33;;;;;;;2.15;1.63;;;;;;;;;;5346876;26;20333;-79
2024/04/10 04:35:59;;;;;;;2.72;1.98;;;;;;;;;;5346912;26;20944;-79
2024/04/10 04:38:26;;;;;;;2.80;2.40;;;;;;;;;;5346910;26;20349;-80
2024/04/10 04:40:52;;;;;;;2.60;2.40;;;;;;;;;;5347296;26;20333;-79
2024/04/10 04:43:18;;;;;;;2.72;2.47;;;;;;;;;;5346891;26;20345;-79
2024/04/10 04:45:44;;;;;;;2.90;2.47;;;;;;;;;;5347822;26;20361;-79
2024/04/10 04:48:10;;;;;;;2.50;2.30;;;;;;;;;;5347187;26;20443;-79
2024/04/10 04:50:43;;;;;;;3.17;2.60;;;;;;;;;;5344960;26;20385;-79
2024/04/10 04:53:12;;;;;;;2.58;2.35;;;;;;;;;;5347186;26;20333;-79
2024/04/10 04:55:39;;;;;;;2.60;2.40;;;;;;;;;;5345662;26;20341;-79
2024/04/10 04:58:06;;;;;;;1.50;1.40;;;;;;;;;;5348284;26;20321;-79
2024/04/10 05:00:32;;;;;;;1.65;1.20;;;;;;;;;;5348619;26;20333;-79
2024/04/10 05:02:59;;;;;;;1.42;1.33;;;;;;;;;;5348209;26;20340;-79
2024/04/10 05:05:25;;;;;;;2.33;1.77;;;;;;;;;;5347935;26;20849;-79
2024/04/10 05:07:51;;;;;;;2.25;1.83;;;;;;;;;;5346898;26;20333;-79
2024/04/10 05:10:17;;;;;;;2.22;2.03;;;;;;;;;;5348118;26;20332;-79
2024/04/10 05:12:44;;;;;;;2.50;2.30;;;;;;;;;;5346526;26;20336;-79
2024/04/10 05:15:10;;;;;;;4.57;3.15;;;;;;;;;;5347749;26;20337;-79
2024/04/10 05:17:37;;;;;;;4.07;3.67;;;;;;;;;;5347696;26;20384;-79
2024/04/10 05:20:04;;;;;;;3.28;2.58;;;;;;;;;;5345220;26;20341;-79
2024/04/10 05:22:30;;;;;;;2.70;2.50;;;;;;;;;;5347678;26;20320;-79
2024/04/10 05:24:56;;;;;;;4.32;2.13;;;;;;;;;;5347112;26;20373;-79
2024/04/10 05:27:26;;;;;;;2.28;2.08;;;;;;;;;;5347748;26;20671;-80
2024/04/10 05:29:59;;;;;;;2.88;2.20;;;;;;;;;;5346195;26;20880;-78
2024/04/10 05:32:26;;;;;;;2.35;2.15;;;;;;;;;;5346302;26;20321;-78
2024/04/10 05:34:53;;;;;;;2.30;2.10;;;;;;;;;;5349565;26;20739;-80
2024/04/10 05:37:19;;;;;;;2.33;2.13;;;;;;;;;;5350759;26;20408;-80
2024/04/10 05:39:45;;;;;;;3.10;1.75;;;;;;;;;;5348674;26;20349;-80
2024/04/10 05:42:11;;;;;;;2.00;1.90;;;;;;;;;;5348680;26;20360;-80
2024/04/10 05:44:37;;;;;;;2.35;2.13;;;;;;;;;;5350515;26;20368;-79
2024/04/10 05:47:03;;;;;;;2.23;1.97;;;;;;;;;;5350303;26;20730;-79
2024/04/10 05:49:30;;;;;;;3.13;2.38;;;;;;;;;;5350306;26;20352;-80
2024/04/10 05:51:56;;;;;;;2.95;2.65;;;;;;;;;;5350385;26;20337;-80
2024/04/10 05:54:22;;;;;;;3.08;2.30;;;;;;;;;;5350882;26;20368;-79
2024/04/10 05:56:48;;;;;;;3.40;2.45;;;;;;;;;;5351031;26;20337;-80
2024/04/10 05:59:14;;;;;;;2.70;2.50;;;;;;;;;;5350964;26;20671;-80
2024/04/10 06:01:40;;;;;;;2.60;2.40;;;;;;;;;;5351116;26;20414;-80
2024/04/10 06:04:06;;;;;;;2.45;2.22;;;;;;;;;;5348763;26;20368;-79
2024/04/10 06:06:33;;;;;;;2.30;1.95;;;;;;;;;;5350426;26;20430;-80
2024/04/10 06:08:59;;;;;;;3.23;2.87;;;;;;;;;;5349272;26;20413;-79
2024/04/10 06:11:29;;;;;;;2.95;2.30;;;;;;;;;;5326044;26;20422;-76
2024/04/10 06:13:57;;;;;;;3.22;2.70;;;;;;;;;;5314137;26;20343;-79
2024/04/10 06:16:23;;;;;;;2.50;2.30;;;;;;;;;;5315258;27;20372;-79
2024/04/10 06:18:49;;;;;;;2.50;2.30;;;;;;;;;;5315778;27;20451;-79
2024/04/10 06:21:16;;;;;;;2.97;2.47;;;;;;;;;;5315742;27;20343;-79
2024/04/10 06:23:42;;;;;;;3.03;2.65;;;;;;;;;;5315077;27;20340;-81
2024/04/10 06:26:08;;;;;;;3.10;2.40;;;;;;;;;;5315735;27;20825;-81
2024/04/10 06:28:34;;;;;;;2.95;2.75;;;;;;;;;;5316126;26;20384;-81
2024/04/10 06:31:01;;;;;;;3.40;3.20;;;;;;;;;;5315848;27;20336;-81
2024/04/10 06:33:27;;;;;;;3.20;2.92;;;;;;;;;;5316383;26;20380;-81
2024/04/10 06:35:53;;;;;;;3.83;3.00;;;;;;;;;;5315666;27;20372;-81
2024/04/10 06:38:19;;;;;;;3.55;3.25;;;;;;;;;;5315583;27;20340;-80
2024/04/10 06:41:01;;;;;;;3.85;3.42;;;;;;;;;;5315378;27;20453;-81
2024/04/10 06:43:27;;;;;;;5.97;4.10;;;;;;;;;;5315370;27;20340;-81
2024/04/10 06:46:00;;;;;;;5.37;4.87;;;;;;;;;;5314311;27;20770;-81
2024/04/10 06:48:27;;;;;;;4.38;3.97;;;;;;;;;;5315752;27;20343;-81
2024/04/10 06:50:57;;;;;;;4.88;4.47;;;;;;;;;;5315460;27;20370;-81
2024/04/10 06:53:23;;;;;;;4.20;3.85;;;;;;;;;;5314839;27;20821;-81
2024/04/10 06:55:58;;;;;;;3.90;3.60;;;;;;;;;;5315906;26;20336;-80
2024/04/10 06:58:28;;;;;;;5.35;4.60;;;;;;;;;;5315224;27;20359;-80
2024/04/10 07:01:02;;;;;;;4.10;3.80;;;;;;;;;;5315675;27;20335;-80
2024/04/10 07:03:28;;;;;;;4.45;4.07;;;;;;;;;;5314832;27;20336;-80
2024/04/10 07:06:04;;;;;;;3.50;3.00;;;;;;;;;;5315153;27;20379;-80
2024/04/10 07:08:31;;;;;;;2.80;2.60;;;;;;;;;;5315068;27;20400;-80
2024/04/10 07:10:57;;;;;;;3.30;3.00;;;;;;;;;;5315368;27;20825;-80
2024/04/10 07:13:26;;;;;;;3.50;3.30;;;;;;;;;;5315615;26;20439;-80
2024/04/10 07:15:59;;;;;;;3.00;2.80;;;;;;;;;;5315258;26;20335;-80
2024/04/10 07:18:29;;;;;;;3.40;3.10;;;;;;;;;;5314724;27;20343;-80
2024/04/10 07:21:01;;;;;;;3.40;3.10;;;;;;;;;;5314751;26;20343;-80
2024/04/10 07:23:27;;;;;;;3.80;3.50;;;;;;;;;;5315157;26;20335;-80
2024/04/10 07:25:53;;;;;;;3.70;3.40;;;;;;;;;;5315370;27;20438;-80
2024/04/10 07:28:19;;;;;;;4.43;3.33;;;;;;;;;;5315021;27;20902;-80
2024/04/10 07:30:49;;;;;;;3.88;3.10;;;;;;;;;;5315110;26;20340;-80
2024/04/10 07:33:15;;;;;;;4.05;3.70;;;;;;;;;;5314193;27;20344;-80
2024/04/10 07:35:41;;;;;;;3.80;3.37;;;;;;;;;;5315096;27;20368;-80
2024/04/10 07:38:07;;;;;;;3.60;3.20;;;;;;;;;;5315178;27;20355;-80
2024/04/10 07:40:33;;;;;;;3.35;2.75;;;;;;;;;;5314949;27;20371;-81
2024/04/10 07:42:59;;;;;;;3.20;2.05;;;;;;;;;;5333562;26;20345;-79
2024/04/10 07:45:28;;;;;;;2.95;2.33;;;;;;;;;;5349446;26;20447;-80
2024/04/10 07:47:54;;;;;;;2.73;2.40;;;;;;;;;;5349472;26;20377;-80
2024/04/10 07:50:20;;;;;;;3.08;2.10;;;;;;;;;;5349267;26;20333;-80
2024/04/10 07:52:46;;;;;;;3.47;2.20;;;;;;;;;;5349536;26;20424;-80
2024/04/10 07:55:13;;;;;;;3.78;2.03;;;;;;;;;;5348855;26;20807;-80
2024/04/10 07:57:40;;;;;;;3.88;2.05;;;;;;;;;;5348586;26;20325;-80
2024/04/10 08:00:08;;;;;;;3.00;1.60;;;;;;;;;;5347592;26;20354;-80
2024/04/10 08:02:34;;;;;;;3.97;1.80;;;;;;;;;;5339129;26;20842;-80
2024/04/10 08:05:00;;;;;;;4.57;2.17;;;;;;;;;;5348604;26;20329;-80
2024/04/10 08:07:26;;;;;;;6.77;1.70;;;;;;;;;;5349132;26;20894;-80
2024/04/10 08:09:52;;;;;;;3.33;1.33;;;;;;;;;;5348427;26;20333;-80
2024/04/10 08:12:18;;;;;;;4.65;1.52;;;;;;;;;;5348555;26;20818;-80
2024/04/10 08:14:45;;;;;;;5.05;1.55;;;;;;;;;;5348969;26;20386;-81
2024/04/10 08:17:11;;;;;;;3.83;1.75;;;;;;;;;;5348842;26;20409;-80
2024/04/10 08:19:38;;;;;;;6.57;1.95;;;;;;;;;;5348934;26;20337;-81
2024/04/10 08:22:07;;;;;;;3.78;1.63;;;;;;;;;;5348577;26;20380;-80
2024/04/10 08:24:33;;;;;;;5.03;1.77;;;;;;;;;;5348580;26;20375;-80
2024/04/10 08:27:02;;;;;;;7.00;1.90;;;;;;;;;;5348440;26;20337;-80
2024/04/10 08:29:28;;;;;;;6.60;2.20;;;;;;;;;;5348202;26;20859;-82
2024/04/10 08:31:54;;;;;;;3.92;2.00;;;;;;;;;;5348973;26;20333;-80
2024/04/10 08:34:21;;;;;;;5.05;2.05;;;;;;;;;;5348510;26;20329;-81
2024/04/10 08:36:47;;;;;;;3.65;1.70;;;;;;;;;;5348127;26;20332;-80
2024/04/10 08:39:13;;;;;;;3.63;1.70;;;;;;;;;;5348418;26;20353;-80
2024/04/10 08:41:40;;;;;;;3.47;1.55;;;;;;;;;;5348506;26;20783;-80
2024/04/10 08:44:06;;;;;;;4.63;1.70;;;;;;;;;;5348352;26;20407;-80
2024/04/10 08:46:42;;;;;;;4.78;1.50;;;;;;;;;;5348874;26;20399;-80
2024/04/10 08:49:09;;;;;;;4.47;1.88;;;;;;;;;;5348598;26;20423;-80
2024/04/10 08:51:36;;;;;;;3.67;1.80;;;;;;;;;;5338006;26;20351;-80
2024/04/10 08:54:04;;;;;;;3.08;1.50;;;;;;;;;;5339776;26;20710;-80
2024/04/10 08:56:30;;;;;;;4.25;1.77;;;;;;;;;;5348060;26;20360;-81
2024/04/10 08:58:56;;;;;;;4.22;1.65;;;;;;;;;;5348237;26;20328;-81
2024/04/10 09:01:26;;;;;;;5.07;2.17;;;;;;;;;;5348112;26;20374;-81
2024/04/10 09:03:52;;;;;;;4.10;1.85;;;;;;;;;;5346285;26;20381;-80
2024/04/10 09:06:19;;;;;;;4.28;1.50;;;;;;;;;;5347760;26;20683;-81
2024/04/10 09:08:55;;;;;;;4.20;1.40;;;;;;;;;;5345046;26;20454;-80
2024/04/10 09:11:22;;;;;;;4.35;1.77;;;;;;;;;;5348336;26;20810;-80
2024/04/10 09:13:48;;;;;;;4.10;1.60;;;;;;;;;;5346347;26;20899;-81
2024/04/10 09:16:21;;;;;;;1.83;1.17;;;;;;;;;;5347690;26;20364;-81
2024/04/10 09:18:47;;;;;;;2.80;1.13;;;;;;;;;;5347776;26;20344;-81
2024/04/10 09:21:14;;;;;;;4.30;1.70;;;;;;;;;;5347707;26;20325;-80
2024/04/10 09:23:40;;;;;;;3.92;1.95;;;;;;;;;;5348325;26;21195;-81
2024/04/10 09:26:07;;;;;;;3.30;1.60;;;;;;;;;;5347837;26;20365;-81
2024/04/10 09:28:33;;;;;;;4.85;1.70;;;;;;;;;;5347903;26;20337;-81
2024/04/10 09:30:59;;;;;;;5.30;1.65;;;;;;;;;;5348164;26;20333;-81
2024/04/10 09:33:27;;;;;;;4.28;1.50;;;;;;;;;;5347833;26;20389;-81
2024/04/10 09:35:55;;;;;;;2.92;1.33;;;;;;;;;;5347960;26;20380;-81
2024/04/10 09:38:22;;;;;;;3.83;1.27;;;;;;;;;;5347772;26;20810;-81
2024/04/10 09:40:51;;;;;;;4.60;1.50;;;;;;;;;;5348372;26;20328;-81
2024/04/10 09:43:17;;;;;;;3.47;1.60;;;;;;;;;;5347667;26;20376;-81
2024/04/10 09:45:45;;;;;;;3.17;1.33;;;;;;;;;;5347535;26;20373;-81
2024/04/10 09:48:11;;;;;;;3.85;1.42;;;;;;;;;;5347342;26;20341;-81
2024/04/10 09:50:38;;;;;;;5.80;1.20;;;;;;;;;;5347024;26;20382;-81
2024/04/10 09:53:05;;;;;;;6.75;1.50;;;;;;;;;;5347771;26;20329;-81
2024/04/10 09:55:33;;;;;;;3.97;1.50;;;;;;;;;;5347476;26;20827;-81
2024/04/10 09:58:00;;;;;;;5.00;2.00;;;;;;;;;;5345690;26;20451;-81
2024/04/10 10:00:26;;;;;;;3.50;1.63;;;;;;;;;;5346675;26;20377;-81
2024/04/10 10:03:05;;;;;;;5.68;1.90;;;;;;;;;;5347299;26;20416;-81
2024/04/10 10:05:32;;;;;;;4.78;1.58;;;;;;;;;;5343857;26;20396;-81
2024/04/10 10:08:04;;;;;;;5.72;1.63;;;;;;;;;;5347320;26;20337;-81
2024/04/10 10:10:30;;;;;;;4.97;1.35;;;;;;;;;;5346788;26;20357;-81
2024/04/10 10:13:14;;;;;;;6.60;1.70;;;;;;;;;;5347496;26;21144;-81
2024/04/10 10:15:41;;;;;;;3.33;1.52;;;;;;;;;;5347108;26;20321;-81
2024/04/10 10:18:07;;;;;;;5.15;1.50;;;;;;;;;;5346810;26;20353;-81
2024/04/10 10:20:33;;;;;;;3.40;1.50;;;;;;;;;;5349372;26;20354;-81
2024/04/10 10:23:03;;;;;;;4.45;1.40;;;;;;;;;;5350565;26;20313;-81
2024/04/10 10:25:29;;;;;;;4.60;1.45;;;;;;;;;;5350150;26;20321;-81
2024/04/10 10:28:08;;;;;;;4.28;1.35;;;;;;;;;;5350282;26;20333;-81
2024/04/10 10:30:35;;;;;;;4.88;1.45;;;;;;;;;;5350503;26;21171;-81
2024/04/10 10:33:02;;;;;;;5.13;1.47;;;;;;;;;;5350675;26;20397;-82
2024/04/10 10:35:28;;;;;;;4.53;1.33;;;;;;;;;;5350649;26;20361;-81
2024/04/10 10:37:55;;;;;;;3.53;1.42;;;;;;;;;;5350727;26;20683;-80
2024/04/10 10:40:21;;;;;;;3.17;1.30;;;;;;;;;;5350226;26;20401;-81
2024/04/10 10:42:48;;;;;;;3.20;1.20;;;;;;;;;;5349691;26;20344;-81
2024/04/10 10:45:14;;;;;;;3.05;1.10;;;;;;;;;;5350303;26;20361;-81
2024/04/10 10:47:41;;;;;;;3.50;0.90;;;;;;;;;;5350296;26;20329;-81
2024/04/10 10:50:07;;;;;;;3.22;1.48;;;;;;;;;;5349949;26;20422;-81
2024/04/10 10:52:33;;;;;;;5.78;1.30;;;;;;;;;;5350702;26;20325;-81
2024/04/10 10:55:07;;;;;;;4.57;1.73;;;;;;;;;;5350325;26;20332;-81
2024/04/10 10:57:33;;;;;;;3.75;1.48;;;;;;;;;;5350551;26;20384;-81
2024/04/10 10:59:59;;;;;;;3.30;1.45;;;;;;;;;;5350029;26;20373;-80
2024/04/10 11:02:26;;;;;;;3.77;1.30;;;;;;;;;;5350641;26;20878;-81
2024/04/10 11:04:53;;;;;;;3.90;1.10;;;;;;;;;;5349062;26;21026;-80
2024/04/10 11:07:20;;;;;;;3.65;1.20;;;;;;;;;;5350202;26;20727;-81
2024/04/10 11:09:47;;;;;;;3.40;1.00;;;;;;;;;;5347022;26;20379;-81
2024/04/10 11:12:13;;;;;;;3.13;1.30;;;;;;;;;;5350390;26;20385;-80
2024/04/10 11:14:39;;;;;;;3.30;1.20;;;;;;;;;;5349211;26;20325;-81
2024/04/10 11:17:06;;;;;;;2.97;1.00;;;;;;;;;;5349522;26;20325;-81
2024/04/10 11:19:34;;;;;;;3.23;1.00;;;;;;;;;;5349574;26;20439;-82
2024/04/10 11:22:02;;;;;;;2.22;0.90;;;;;;;;;;5350632;26;20325;-81
2024/04/10 11:24:29;;;;;;;4.63;1.17;;;;;;;;;;5349980;26;20833;-80
2024/04/10 11:26:56;;;;;;;4.15;0.90;;;;;;;;;;5350414;26;20332;-81
2024/04/10 11:29:22;;;;;;;2.78;0.80;;;;;;;;;;5349765;26;20396;-81
2024/04/10 11:31:48;;;;;;;2.20;0.80;;;;;;;;;;5348820;26;20538;-81
2024/04/10 11:34:14;;;;;;;2.90;0.80;;;;;;;;;;5349947;26;20426;-81
2024/04/10 11:36:39;;;;;;;2.40;1.10;;;;;;;;;;5348622;26;20361;-81
2024/04/10 11:39:07;;;;;;;3.28;0.98;;;;;;;;;;5348591;26;20445;-81
2024/04/10 11:41:33;;;;;;;2.63;0.90;;;;;;;;;;5349598;26;20418;-80
2024/04/10 11:43:59;;;;;;;3.00;1.20;;;;;;;;;;5349687;26;20345;-80
2024/04/10 11:46:25;;;;;;;3.13;1.03;;;;;;;;;;5349550;26;20493;-81
2024/04/10 11:48:51;;;;;;;3.38;0.75;;;;;;;;;;5349121;26;20396;-81
2024/04/10 11:51:17;;;;;;;2.03;1.00;;;;;;;;;;5348654;26;20363;-80
2024/04/10 11:53:43;;;;;;;3.35;0.90;;;;;;;;;;5350145;26;20329;-81
2024/04/10 11:56:09;;;;;;;2.03;0.83;;;;;;;;;;5349806;26;20321;-80
2024/04/10 11:58:35;;;;;;;3.42;1.00;;;;;;;;;;5349212;26;20330;-81
2024/04/10 12:01:01;;;;;;;2.85;1.08;;;;;;;;;;5348635;26;20344;-81
2024/04/10 12:03:27;;;;;;;3.97;0.90;;;;;;;;;;5349238;26;20376;-81
2024/04/10 12:05:53;;;;;;;4.18;1.40;;;;;;;;;;5347254;26;20453;-81
2024/04/10 12:08:19;;;;;;;4.78;1.52;;;;;;;;;;5348557;26;20357;-81
2024/04/10 12:10:45;;;;;;;4.05;1.38;;;;;;;;;;5349061;26;20329;-81
2024/04/10 12:13:11;;;;;;;2.83;1.10;;;;;;;;;;5348865;26;20466;-81
2024/04/10 12:15:37;;;;;;;3.17;1.33;;;;;;;;;;5321824;26;20340;-80
2024/04/10 12:18:03;;;;;;;6.50;1.43;;;;;;;;;;5314439;27;20701;-80
2024/04/10 12:20:29;;;;;;;4.47;1.60;;;;;;;;;;5314501;27;20351;-79
2024/04/10 12:22:55;;;;;;;3.45;1.20;;;;;;;;;;5312498;27;20798;-81
2024/04/10 12:25:22;;;;;;;4.13;1.20;;;;;;;;;;5314349;27;20458;-80
2024/04/10 12:27:48;;;;;;;3.13;1.17;;;;;;;;;;5314094;27;20339;-81
2024/04/10 12:30:14;;;;;;;2.58;1.30;;;;;;;;;;5314186;26;20336;-80
2024/04/10 12:32:40;;;;;;;3.77;1.03;;;;;;;;;;5313806;27;20376;-81
2024/04/10 12:38:07;;;;;;;3.95;1.00;;;;;;;;;;5331544;26;20339;-80
2024/04/10 12:40:37;;;;;;;1.90;0.80;;;;;;;;;;5314334;27;20387;-80
2024/04/10 12:43:03;;;;;;;2.97;0.80;;;;;;;;;;5312828;27;20387;-80
2024/04/10 12:45:29;;;;;;;2.10;0.63;;;;;;;;;;5314758;27;20425;-80
2024/04/10 12:47:56;;;;;;;3.47;1.88;;;;;;;;;;5314330;27;20335;-80
2024/04/10 12:50:22;;;;;;;1.10;0.70;;;;;;;;;;5315095;27;20452;-80
2024/04/10 12:52:48;;;;;;;2.60;0.80;;;;;;;;;;5314089;27;20836;-80
2024/04/10 12:55:14;;;;;;;2.17;0.70;;;;;;;;;;5314125;27;20343;-80
2024/04/10 12:57:40;;;;;;;3.05;0.80;;;;;;;;;;5313505;27;20359;-80
2024/04/10 13:00:07;;;;;;;2.85;0.90;;;;;;;;;;5313592;27;20347;-80
2024/04/10 13:02:33;;;;;;;4.20;1.70;;;;;;;;;;5314063;26;20331;-80
2024/04/10 13:04:59;;;;;;;4.93;1.45;;;;;;;;;;5313789;27;20382;-80
2024/04/10 13:07:25;;;;;;;3.20;1.20;;;;;;;;;;5313686;26;20340;-80
2024/04/10 13:09:51;;;;;;;3.57;1.10;;;;;;;;;;5313867;27;20834;-80
2024/04/10 13:12:17;;;;;;;3.37;1.13;;;;;;;;;;5313802;27;20368;-80
2024/04/10 13:14:44;;;;;;;3.35;1.13;;;;;;;;;;5313536;27;20380;-80
2024/04/10 13:17:10;;;;;;;4.20;1.40;;;;;;;;;;5313874;27;20877;-80
2024/04/10 13:19:36;;;;;;;4.28;1.45;;;;;;;;;;5313174;27;20679;-80
2024/04/10 13:22:03;;;;;;;2.63;0.98;;;;;;;;;;5313524;27;20355;-80
2024/04/10 13:24:29;;;;;;;3.42;0.98;;;;;;;;;;5313883;27;20734;-81
2024/04/10 13:26:55;;;;;;;3.67;1.15;;;;;;;;;;5313852;27;20335;-80
2024/04/10 13:29:21;;;;;;;2.70;1.20;;;;;;;;;;5313899;26;20340;-81
2024/04/10 13:31:47;;;;;;;4.80;1.40;;;;;;;;;;5313556;27;20347;-80
2024/04/10 13:34:13;;;;;;;4.07;1.15;;;;;;;;;;5313735;27;20703;-81
2024/04/10 13:36:39;;;;;;;3.67;1.08;;;;;;;;;;5313278;27;20396;-80
2024/04/10 13:39:05;;;;;;;4.38;1.10;;;;;;;;;;5313278;27;20343;-80
2024/04/10 13:41:32;;;;;;;3.30;1.13;;;;;;;;;;5313645;26;20434;-81
2024/04/10 13:43:59;;;;;;;3.03;1.10;;;;;;;;;;5323358;26;20373;-81
2024/04/10 13:46:26;;;;;;;2.70;1.08;;;;;;;;;;5347855;26;20340;-81
2024/04/10 13:48:52;;;;;;;4.43;1.00;;;;;;;;;;5347967;26;20337;-81
2024/04/10 13:51:19;;;;;;;5.17;1.43;;;;;;;;;;5347252;26;20427;-79
2024/04/10 13:53:45;;;;;;;3.63;1.40;;;;;;;;;;5347258;26;20720;-80
2024/04/10 13:56:11;;;;;;;3.97;1.60;;;;;;;;;;5348512;26;20325;-81
2024/04/10 13:58:39;;;;;;;4.03;1.50;;;;;;;;;;5350487;26;20364;-81
2024/04/10 14:01:15;;;;;;;4.70;1.30;;;;;;;;;;5350714;26;20341;-80
2024/04/10 14:03:42;;;;;;;1.98;0.98;;;;;;;;;;5350877;26;20333;-80
2024/04/10 14:06:08;;;;;;;3.70;1.20;;;;;;;;;;5350781;26;20387;-80
2024/04/10 14:08:34;;;;;;;2.92;1.00;;;;;;;;;;5351145;26;20422;-81
2024/04/10 14:11:01;;;;;;;3.58;1.02;;;;;;;;;;5351104;26;20325;-80
2024/04/10 14:13:27;;;;;;;2.00;1.00;;;;;;;;;;5350713;26;20401;-81
2024/04/10 14:15:56;;;;;;;3.05;1.23;;;;;;;;;;5344648;26;20331;-81
2024/04/10 14:18:26;;;;;;;5.20;1.50;;;;;;;;;;5350795;26;20349;-81
2024/04/10 14:21:08;;;;;;;5.20;1.20;;;;;;;;;;5350247;26;20337;-81
2024/04/10 14:23:34;;;;;;;2.40;1.00;;;;;;;;;;5351070;26;20341;-81
2024/04/10 14:26:01;;;;;;;4.53;1.30;;;;;;;;;;5351031;26;20336;-81
2024/04/10 14:28:28;;;;;;;3.47;1.20;;;;;;;;;;5350730;26;20348;-81
2024/04/10 14:31:07;;;;;;;3.65;1.30;;;;;;;;;;5350997;26;20429;-81
2024/04/10 14:33:37;;;;;;;3.30;1.52;;;;;;;;;;5350990;26;20398;-80
2024/04/10 14:36:13;;;;;;;3.53;1.23;;;;;;;;;;5351546;26;20329;-81
2024/04/10 14:38:39;;;;;;;2.70;0.82;;;;;;;;;;5350219;26;20325;-81
2024/04/10 14:41:05;;;;;;;3.10;0.98;;;;;;;;;;5350785;26;21192;-81
2024/04/10 14:43:32;;;;;;;2.22;0.90;;;;;;;;;;5351191;26;20667;-81
2024/04/10 14:46:05;;;;;;;3.00;1.10;;;;;;;;;;5350943;26;20862;-81